Time;durP1;ratioP1;P1;durP2;ratioP2;P2;SDS_P1;SDS_P2;PMS_P1;PMS_P2;Temp;Humidity;BMP_temperature;BMP_pressure;BME280_temperature;BME280_humidity;BME280_pressure;Samples;Min_cycle;Max_cycle;Signal;HPM_P1;HPM_P2
2023/05/15 00:01:15;;;;;;;26.92;13.77;;;12.50;99.90;;;;;;5016409;28;20018;-76
2023/05/15 00:03:42;;;;;;;26.52;13.45;;;12.40;99.90;;;;;;5016507;28;20028;-76
2023/05/15 00:06:08;;;;;;;27.67;14.25;;;12.40;99.90;;;;;;5016467;28;20026;-75
2023/05/15 00:08:34;;;;;;;33.38;15.60;;;12.40;99.90;;;;;;5016625;28;20367;-76
2023/05/15 00:10:59;;;;;;;32.88;14.88;;;12.30;99.90;;;;;;5016186;28;20033;-75
2023/05/15 00:13:25;;;;;;;39.42;14.35;;;12.30;99.90;;;;;;5015980;28;20401;-76
2023/05/15 00:15:50;;;;;;;30.77;14.23;;;12.30;99.90;;;;;;5016062;28;20367;-76
2023/05/15 00:18:16;;;;;;;29.08;14.15;;;12.30;99.90;;;;;;5016246;28;20391;-77
2023/05/15 00:20:42;;;;;;;28.60;13.20;;;12.30;99.90;;;;;;5031362;28;20026;-76
2023/05/15 00:23:08;;;;;;;29.48;13.88;;;12.40;99.90;;;;;;5016084;28;20050;-76
2023/05/15 00:25:34;;;;;;;29.08;14.10;;;12.40;99.90;;;;;;5015986;28;20478;-77
2023/05/15 00:27:59;;;;;;;35.80;15.38;;;12.40;99.90;;;;;;5016010;28;20032;-77
2023/05/15 00:30:25;;;;;;;30.30;14.93;;;12.30;99.90;;;;;;5016184;28;20101;-76
2023/05/15 00:32:51;;;;;;;29.70;14.63;;;12.30;99.90;;;;;;5015954;28;20090;-77
2023/05/15 00:35:16;;;;;;;45.30;15.52;;;12.20;99.90;;;;;;5031072;28;20026;-75
2023/05/15 00:37:42;;;;;;;37.92;15.32;;;12.20;99.90;;;;;;5015741;28;20387;-76
2023/05/15 00:40:11;;;;;;;34.78;15.63;;;12.20;99.90;;;;;;5015821;28;20086;-76
2023/05/15 00:42:37;;;;;;;30.40;14.75;;;12.10;99.90;;;;;;5030954;28;20455;-76
2023/05/15 00:45:08;;;;;;;29.13;15.60;;;12.10;99.90;;;;;;5031027;28;20084;-76
2023/05/15 00:47:35;;;;;;;35.13;16.77;;;12.10;99.90;;;;;;5015792;28;20026;-75
2023/05/15 00:50:01;;;;;;;35.88;16.83;;;12.00;99.90;;;;;;5030736;28;20100;-76
2023/05/15 00:52:28;;;;;;;37.50;18.27;;;12.00;99.90;;;;;;5015522;28;20030;-76
2023/05/15 00:54:55;;;;;;;37.80;17.20;;;11.90;99.90;;;;;;5015177;28;20034;-76
2023/05/15 00:57:23;;;;;;;39.92;17.55;;;12.00;99.90;;;;;;5015589;28;20093;-75
2023/05/15 00:59:51;;;;;;;39.50;16.58;;;11.90;99.90;;;;;;5015425;28;20027;-75
2023/05/15 01:02:20;;;;;;;31.85;15.65;;;11.90;99.90;;;;;;5015316;28;20025;-76
2023/05/15 01:04:46;;;;;;;44.85;18.40;;;11.90;99.90;;;;;;5014543;28;20037;-76
2023/05/15 01:07:12;;;;;;;36.45;17.17;;;12.00;99.90;;;;;;5030295;28;20014;-75
2023/05/15 01:09:42;;;;;;;34.85;17.48;;;11.90;99.90;;;;;;5015043;28;20034;-76
2023/05/15 01:12:09;;;;;;;36.50;17.73;;;11.80;99.90;;;;;;5014896;28;20041;-76
2023/05/15 01:14:35;;;;;;;39.67;17.48;;;11.90;99.90;;;;;;5014991;28;20109;-76
2023/05/15 01:17:00;;;;;;;38.20;18.13;;;11.90;99.90;;;;;;5015122;28;20426;-76
2023/05/15 01:19:26;;;;;;;45.97;20.25;;;11.90;99.90;;;;;;5014961;28;20018;-75
2023/05/15 01:22:32;;;;;;;43.03;18.90;;;11.90;99.90;;;;;;5015111;28;20414;-77
2023/05/15 01:25:19;;;;;;;38.15;17.23;;;11.80;99.90;;;;;;5014930;28;20293;-75
2023/05/15 01:27:56;;;;;;;33.90;16.90;;;11.80;99.90;;;;;;5030020;28;20040;-77
2023/05/15 01:30:28;;;;;;;37.23;19.53;;;11.70;99.90;;;;;;5014865;28;20277;-77
2023/05/15 01:33:23;;;;;;;37.78;18.75;;;11.70;99.90;;;;;;5014833;28;20033;-77
2023/05/15 01:35:58;;;;;;;33.80;17.50;;;11.60;99.90;;;;;;5014675;28;20022;-76
2023/05/15 01:38:35;;;;;;;43.78;19.45;;;11.60;99.90;;;;;;5014567;28;20164;-75
2023/05/15 01:41:07;;;;;;;40.50;18.70;;;11.60;99.90;;;;;;5014672;28;20030;-75
2023/05/15 01:43:36;;;;;;;36.95;19.10;;;11.50;99.90;;;;;;5014667;28;20097;-76
2023/05/15 01:46:03;;;;;;;38.75;17.70;;;11.50;99.90;;;;;;5014519;28;20029;-77
2023/05/15 01:48:32;;;;;;;39.08;18.58;;;11.40;99.90;;;;;;5014503;28;20032;-76
2023/05/15 01:51:02;;;;;;;43.40;20.30;;;11.30;99.90;;;;;;5014509;28;20036;-76
2023/05/15 01:53:33;;;;;;;41.40;17.90;;;11.20;99.90;;;;;;5014418;28;20033;-76
2023/05/15 01:55:59;;;;;;;34.35;16.90;;;11.20;99.90;;;;;;5014365;28;20485;-76
2023/05/15 01:58:26;;;;;;;39.97;18.85;;;11.20;99.90;;;;;;5014312;28;20108;-75
2023/05/15 02:00:52;;;;;;;41.03;17.52;;;11.20;99.90;;;;;;5014292;28;20488;-76
2023/05/15 02:03:19;;;;;;;46.55;17.02;;;11.20;99.90;;;;;;5014244;28;20026;-75
2023/05/15 02:05:47;;;;;;;38.20;17.83;;;11.20;99.90;;;;;;5014265;28;20109;-76
2023/05/15 02:08:14;;;;;;;47.70;18.83;;;11.20;99.90;;;;;;5029471;28;20026;-75
2023/05/15 02:10:40;;;;;;;43.58;17.30;;;11.10;99.90;;;;;;5014017;28;20034;-78
2023/05/15 02:13:08;;;;;;;34.63;17.17;;;11.10;99.90;;;;;;5014025;28;20050;-76
2023/05/15 02:15:34;;;;;;;;;;;11.10;99.90;;;;;;5028702;28;20042;-75
2023/05/15 02:18:00;;;;;;;42.20;16.42;;;11.10;99.90;;;;;;5029163;28;19911;-76
2023/05/15 02:20:26;;;;;;;45.35;18.20;;;11.00;99.90;;;;;;5029256;28;20478;-75
2023/05/15 02:22:51;;;;;;;34.78;17.27;;;11.10;99.90;;;;;;5014018;28;20018;-76
2023/05/15 02:25:18;;;;;;;36.08;17.65;;;11.10;99.90;;;;;;5013901;28;20022;-75
2023/05/15 02:27:57;;;;;;;34.80;15.37;;;11.10;99.90;;;;;;5013873;28;20029;-76
2023/05/15 02:30:53;;;;;;;36.88;17.15;;;11.10;99.90;;;;;;5014053;28;20276;-77
2023/05/15 02:33:33;;;;;;;36.78;16.20;;;11.10;99.90;;;;;;5008757;28;20130;-76
2023/05/15 02:36:04;;;;;;;32.80;16.05;;;11.00;99.90;;;;;;5013868;28;20034;-76
2023/05/15 02:38:34;;;;;;;46.30;18.08;;;11.00;99.90;;;;;;5013639;28;20083;-76
2023/05/15 02:41:01;;;;;;;32.95;15.23;;;11.00;99.90;;;;;;5028855;28;20470;-76
2023/05/15 02:43:28;;;;;;;37.42;16.73;;;11.00;99.90;;;;;;5011460;28;20061;-75
2023/05/15 02:45:56;;;;;;;37.50;16.55;;;11.00;99.90;;;;;;5011476;28;20042;-75
2023/05/15 02:48:22;;;;;;;37.85;15.48;;;11.00;99.90;;;;;;5011281;28;20120;-76
2023/05/15 02:50:48;;;;;;;34.97;15.38;;;11.00;99.90;;;;;;5011533;28;20033;-77
2023/05/15 02:53:14;;;;;;;37.67;15.25;;;11.00;99.90;;;;;;5011446;28;20530;-76
2023/05/15 02:55:41;;;;;;;36.35;15.98;;;11.00;99.90;;;;;;5011336;28;20026;-76
2023/05/15 02:58:08;;;;;;;40.63;16.77;;;11.00;99.90;;;;;;5011310;28;20042;-75
2023/05/15 03:00:34;;;;;;;31.90;15.02;;;11.00;99.90;;;;;;5008454;28;20482;-76
2023/05/15 03:02:59;;;;;;;31.20;15.82;;;11.00;99.90;;;;;;5011233;28;20088;-75
2023/05/15 03:05:25;;;;;;;34.60;16.70;;;11.00;99.90;;;;;;5011118;28;20032;-75
2023/05/15 03:07:50;;;;;;;33.40;16.23;;;11.00;99.90;;;;;;5011181;28;20042;-75
2023/05/15 03:10:16;;;;;;;32.42;15.70;;;11.00;99.90;;;;;;5011015;28;20092;-75
2023/05/15 03:12:42;;;;;;;39.63;16.95;;;11.00;99.90;;;;;;5011027;28;20061;-75
2023/05/15 03:15:08;;;;;;;30.58;15.82;;;10.90;99.90;;;;;;5012590;28;20108;-75
2023/05/15 03:17:33;;;;;;;33.22;15.35;;;10.90;99.90;;;;;;5013323;28;20467;-76
2023/05/15 03:19:59;;;;;;;40.20;16.88;;;10.80;99.90;;;;;;5013224;28;20392;-76
2023/05/15 03:22:25;;;;;;;39.78;15.88;;;10.90;99.90;;;;;;5013503;28;20022;-75
2023/05/15 03:24:51;;;;;;;44.88;16.02;;;10.80;99.90;;;;;;5010816;28;20041;-75
2023/05/15 03:27:16;;;;;;;44.50;16.15;;;10.80;99.90;;;;;;5012966;28;20049;-75
2023/05/15 03:29:42;;;;;;;39.67;16.15;;;10.80;99.90;;;;;;5015033;28;20076;-75
2023/05/15 03:32:09;;;;;;;33.47;14.77;;;10.90;99.90;;;;;;5034760;28;20048;-76
2023/05/15 03:34:35;;;;;;;29.63;14.75;;;10.90;99.90;;;;;;5034544;28;20044;-76
2023/05/15 03:37:01;;;;;;;34.60;16.02;;;10.90;99.90;;;;;;5034540;28;20037;-76
2023/05/15 03:39:27;;;;;;;31.13;14.07;;;10.90;99.90;;;;;;5034659;28;20587;-76
2023/05/15 03:41:52;;;;;;;36.88;15.50;;;11.00;99.90;;;;;;5034513;28;20057;-76
2023/05/15 03:44:18;;;;;;;26.00;12.65;;;11.00;99.90;;;;;;5034522;28;20033;-76
2023/05/15 03:46:43;;;;;;;35.42;14.80;;;10.90;99.90;;;;;;5034368;28;20124;-76
2023/05/15 03:49:09;;;;;;;30.65;15.20;;;10.80;99.90;;;;;;5034451;28;20026;-76
2023/05/15 03:51:35;;;;;;;32.50;14.75;;;10.80;99.90;;;;;;5034231;28;20073;-76
2023/05/15 03:54:03;;;;;;;35.20;14.90;;;10.70;99.90;;;;;;5034385;28;20033;-76
2023/05/15 03:56:30;;;;;;;40.28;17.02;;;10.70;99.90;;;;;;5003597;28;20502;-77
2023/05/15 03:58:56;;;;;;;39.47;16.70;;;10.60;99.90;;;;;;4994930;28;20026;-76
2023/05/15 04:01:21;;;;;;;38.95;16.63;;;10.50;99.90;;;;;;5011158;28;20027;-76
2023/05/15 04:03:47;;;;;;;41.17;18.15;;;10.50;99.90;;;;;;5011651;28;20434;-77
2023/05/15 04:06:12;;;;;;;43.00;19.17;;;10.60;99.90;;;;;;5016073;28;20108;-75
2023/05/15 04:08:38;;;;;;;41.28;16.70;;;10.70;99.90;;;;;;5016592;28;20026;-75
2023/05/15 04:11:04;;;;;;;39.47;17.05;;;10.50;99.90;;;;;;5016356;28;20022;-76
2023/05/15 04:13:30;;;;;;;41.55;16.95;;;10.50;99.90;;;;;;5016230;28;20052;-76
2023/05/15 04:15:56;;;;;;;39.38;15.70;;;10.40;99.90;;;;;;5016211;28;20501;-75
2023/05/15 04:18:21;;;;;;;35.60;15.80;;;10.40;99.90;;;;;;5016277;28;20021;-76
2023/05/15 04:20:47;;;;;;;34.60;14.88;;;10.40;99.90;;;;;;5016144;28;20018;-76
2023/05/15 04:23:13;;;;;;;33.50;14.27;;;10.50;99.90;;;;;;5014366;28;20041;-76
2023/05/15 04:25:41;;;;;;;28.38;14.23;;;10.50;99.90;;;;;;5016135;28;20401;-75
2023/05/15 04:28:07;;;;;;;31.35;13.45;;;10.50;99.90;;;;;;5016068;28;20045;-75
2023/05/15 04:30:34;;;;;;;23.42;11.90;;;10.50;99.90;;;;;;5016358;28;20457;-76
2023/05/15 04:32:59;;;;;;;32.20;13.35;;;10.60;99.90;;;;;;5031781;28;20022;-76
2023/05/15 04:35:25;;;;;;;37.88;13.15;;;10.70;99.90;;;;;;5031740;28;20033;-77
2023/05/15 04:37:51;;;;;;;26.13;13.80;;;10.80;99.90;;;;;;5015799;28;20580;-76
2023/05/15 04:40:17;;;;;;;30.27;13.93;;;10.80;99.90;;;;;;5015559;28;20022;-77
2023/05/15 04:42:42;;;;;;;24.55;13.93;;;10.80;99.90;;;;;;5016550;28;20037;-77
2023/05/15 04:45:09;;;;;;;30.98;15.77;;;10.90;99.90;;;;;;5017188;28;20429;-75
2023/05/15 04:47:35;;;;;;;34.40;16.52;;;10.70;99.90;;;;;;5017101;28;20022;-76
2023/05/15 04:50:00;;;;;;;28.13;15.52;;;10.70;99.90;;;;;;5028073;28;20006;-76
2023/05/15 04:52:27;;;;;;;32.28;17.92;;;10.80;99.90;;;;;;5035513;28;20030;-76
2023/05/15 04:54:54;;;;;;;32.17;15.02;;;10.80;99.90;;;;;;5035942;28;20549;-75
2023/05/15 04:57:20;;;;;;;32.92;16.17;;;10.70;99.90;;;;;;5052181;28;20494;-76
2023/05/15 04:59:46;;;;;;;30.17;15.55;;;10.70;99.90;;;;;;5051567;28;20022;-75
2023/05/15 05:02:12;;;;;;;23.63;13.75;;;10.70;99.90;;;;;;5036918;28;20037;-75
2023/05/15 05:04:42;;;;;;;25.25;12.60;;;10.70;99.90;;;;;;5036567;28;20033;-75
2023/05/15 05:07:08;;;;;;;26.27;14.38;;;10.70;99.90;;;;;;5039230;28;20014;-75
2023/05/15 05:09:34;;;;;;;30.67;14.55;;;10.70;99.90;;;;;;5040519;28;20006;-75
2023/05/15 05:12:00;;;;;;;24.33;14.75;;;10.70;99.90;;;;;;5040047;28;20072;-76
2023/05/15 05:14:26;;;;;;;25.85;14.32;;;10.70;99.90;;;;;;5040526;28;20045;-77
2023/05/15 05:16:52;;;;;;;25.25;14.80;;;10.80;99.90;;;;;;5039803;28;20010;-77
2023/05/15 05:19:17;;;;;;;34.40;16.30;;;10.70;99.90;;;;;;5040084;28;20030;-76
2023/05/15 05:21:43;;;;;;;27.70;14.73;;;10.80;99.90;;;;;;5040636;28;20072;-76
2023/05/15 05:24:09;;;;;;;27.52;15.13;;;10.80;99.90;;;;;;5042933;28;20034;-75
2023/05/15 05:26:34;;;;;;;27.65;14.77;;;10.70;99.90;;;;;;5040395;28;20049;-78
2023/05/15 05:29:00;;;;;;;29.00;16.00;;;10.70;99.90;;;;;;5056058;28;20049;-76
2023/05/15 05:31:26;;;;;;;33.67;17.23;;;10.80;99.90;;;;;;5039922;28;20022;-75
2023/05/15 05:33:51;;;;;;;26.92;14.68;;;10.90;99.90;;;;;;5039918;28;20018;-77
2023/05/15 05:36:17;;;;;;;26.83;15.60;;;10.90;99.90;;;;;;5040026;28;20301;-76
2023/05/15 05:38:43;;;;;;;25.40;14.07;;;11.00;99.90;;;;;;5039677;28;20013;-77
2023/05/15 05:41:09;;;;;;;25.60;14.35;;;11.10;99.90;;;;;;5040036;28;20038;-74
2023/05/15 05:43:34;;;;;;;32.22;15.75;;;11.10;99.90;;;;;;5040153;28;20014;-77
2023/05/15 05:46:01;;;;;;;24.75;14.90;;;11.20;99.90;;;;;;5039762;28;20030;-74
2023/05/15 05:48:26;;;;;;;24.90;15.05;;;11.20;99.90;;;;;;5039655;28;20037;-75
2023/05/15 05:50:52;;;;;;;22.30;13.32;;;11.20;99.90;;;;;;5039779;28;20073;-75
2023/05/15 05:53:18;;;;;;;29.17;15.15;;;11.30;99.90;;;;;;5039360;28;20025;-77
2023/05/15 05:55:44;;;;;;;27.75;14.98;;;11.40;99.90;;;;;;5039743;28;20033;-75
2023/05/15 05:58:09;;;;;;;26.00;15.75;;;11.50;99.90;;;;;;5039874;28;20022;-75
2023/05/15 06:00:35;;;;;;;25.70;15.15;;;11.60;99.90;;;;;;5039549;28;20014;-75
2023/05/15 06:03:01;;;;;;;23.17;13.38;;;11.70;99.90;;;;;;5039659;28;20026;-75
2023/05/15 06:05:27;;;;;;;26.42;14.75;;;11.90;99.90;;;;;;5039418;28;20069;-74
2023/05/15 06:07:53;;;;;;;21.90;13.23;;;11.90;99.90;;;;;;5039521;28;20037;-76
2023/05/15 06:10:20;;;;;;;22.58;13.80;;;11.90;99.90;;;;;;5039280;28;20033;-75
2023/05/15 06:12:46;;;;;;;25.63;14.95;;;11.90;99.90;;;;;;5039116;28;20035;-77
2023/05/15 06:15:12;;;;;;;27.45;13.93;;;12.00;99.90;;;;;;5039276;28;20032;-77
2023/05/15 06:17:38;;;;;;;27.08;14.43;;;12.10;99.90;;;;;;5039422;28;20036;-75
2023/05/15 06:20:08;;;;;;;22.75;14.25;;;12.20;99.90;;;;;;5038670;28;20026;-76
2023/05/15 06:22:35;;;;;;;25.55;14.57;;;12.20;99.90;;;;;;5039227;28;20017;-76
2023/05/15 06:25:01;;;;;;;32.13;14.18;;;12.30;99.90;;;;;;5055242;28;20029;-75
2023/05/15 06:27:28;;;;;;;26.40;13.93;;;12.40;99.90;;;;;;5039278;28;20018;-77
2023/05/15 06:29:54;;;;;;;27.67;13.55;;;12.40;99.90;;;;;;5039019;28;20056;-75
2023/05/15 06:32:20;;;;;;;27.73;13.88;;;12.40;99.90;;;;;;5039121;28;20022;-75
2023/05/15 06:34:45;;;;;;;24.33;13.57;;;12.40;99.90;;;;;;5038511;28;20042;-77
2023/05/15 06:37:11;;;;;;;28.55;14.98;;;12.40;99.90;;;;;;5038919;28;20033;-77
2023/05/15 06:39:37;;;;;;;28.17;15.35;;;12.40;99.90;;;;;;5038935;28;20014;-75
2023/05/15 06:42:03;;;;;;;27.13;15.10;;;12.50;99.90;;;;;;5038933;28;20017;-77
2023/05/15 06:44:30;;;;;;;26.45;15.88;;;12.50;99.90;;;;;;5038853;28;20089;-76
2023/05/15 06:46:55;;;;;;;31.13;15.37;;;12.50;99.90;;;;;;5037599;28;20034;-77
2023/05/15 06:49:21;;;;;;;24.25;14.63;;;12.70;99.90;;;;;;5037944;28;20041;-75
2023/05/15 06:51:47;;;;;;;28.08;16.17;;;12.80;99.90;;;;;;5038565;28;20026;-77
2023/05/15 06:54:13;;;;;;;27.17;15.32;;;13.30;99.90;;;;;;5054393;28;20097;-77
2023/05/15 06:56:39;;;;;;;29.73;16.85;;;13.60;99.90;;;;;;5038345;28;20033;-78
2023/05/15 06:59:04;;;;;;;30.02;15.63;;;13.80;99.90;;;;;;5038301;28;20041;-76
2023/05/15 07:01:30;;;;;;;26.65;16.52;;;13.90;99.90;;;;;;5037888;28;20021;-76
2023/05/15 07:03:56;;;;;;;22.33;15.05;;;13.80;99.90;;;;;;5037986;28;20041;-76
2023/05/15 07:06:22;;;;;;;29.42;15.32;;;13.50;99.90;;;;;;5038324;28;20034;-74
2023/05/15 07:08:48;;;;;;;26.13;15.32;;;13.30;99.90;;;;;;5034558;28;20038;-76
2023/05/15 07:11:14;;;;;;;21.05;12.60;;;13.20;99.90;;;;;;5036902;28;20413;-77
2023/05/15 07:13:40;;;;;;;28.77;14.63;;;13.10;99.90;;;;;;5038151;28;20085;-76
2023/05/15 07:16:07;;;;;;;32.05;14.60;;;13.10;99.90;;;;;;5038410;28;20014;-77
2023/05/15 07:18:32;;;;;;;25.85;14.00;;;13.00;99.90;;;;;;5037835;28;20034;-78
2023/05/15 07:20:58;;;;;;;21.38;12.65;;;13.10;99.90;;;;;;5038016;28;20055;-79
2023/05/15 07:23:24;;;;;;;24.67;13.95;;;13.20;99.90;;;;;;5037644;28;20030;-76
2023/05/15 07:25:54;;;;;;;24.30;15.30;;;13.30;99.90;;;;;;5037281;28;20030;-76
2023/05/15 07:28:20;;;;;;;24.83;13.35;;;13.40;99.90;;;;;;5026585;28;20030;-74
2023/05/15 07:30:46;;;;;;;23.67;13.38;;;13.50;99.90;;;;;;5020769;28;20041;-76
2023/05/15 07:33:12;;;;;;;30.05;14.07;;;13.50;99.90;;;;;;5019160;28;20041;-76
2023/05/15 07:35:39;;;;;;;21.85;13.80;;;13.60;99.90;;;;;;5019755;28;20493;-75
2023/05/15 07:38:05;;;;;;;21.60;11.50;;;13.70;99.90;;;;;;5019067;28;20029;-76
2023/05/15 07:40:31;;;;;;;17.48;11.50;;;13.80;99.90;;;;;;5034537;28;20045;-77
2023/05/15 07:42:57;;;;;;;20.35;12.38;;;13.90;99.90;;;;;;5019034;28;20021;-77
2023/05/15 07:45:23;;;;;;;26.25;12.23;;;14.00;99.90;;;;;;5017264;28;20482;-76
2023/05/15 07:47:49;;;;;;;24.88;13.10;;;13.90;99.90;;;;;;5016953;28;20088;-77
2023/05/15 07:50:16;;;;;;;18.90;11.85;;;14.00;99.90;;;;;;5016978;28;20078;-76
2023/05/15 07:52:42;;;;;;;23.20;13.00;;;14.10;99.90;;;;;;5016576;28;20033;-76
2023/05/15 07:55:10;;;;;;;23.92;12.80;;;14.10;99.90;;;;;;5016423;28;20030;-75
2023/05/15 07:57:36;;;;;;;23.35;11.55;;;14.20;99.90;;;;;;5017017;28;20033;-76
2023/05/15 08:00:08;;;;;;;25.15;13.60;;;14.30;99.90;;;;;;5015625;28;20030;-77
2023/05/15 08:02:34;;;;;;;26.98;13.45;;;14.30;99.90;;;;;;5014904;28;20026;-77
2023/05/15 08:05:00;;;;;;;23.85;13.07;;;14.10;99.90;;;;;;5014259;28;20028;-76
2023/05/15 08:07:26;;;;;;;24.00;13.23;;;14.20;99.90;;;;;;5014763;28;20372;-77
2023/05/15 08:09:51;;;;;;;21.25;12.63;;;14.10;99.90;;;;;;5014461;28;20018;-76
2023/05/15 08:12:21;;;;;;;20.30;12.27;;;14.10;99.90;;;;;;5014285;28;20532;-76
2023/05/15 08:14:52;;;;;;;20.65;12.25;;;14.10;99.90;;;;;;5017122;28;20046;-76
2023/05/15 08:17:19;;;;;;;22.35;11.25;;;14.20;99.90;;;;;;5017773;28;20057;-77
2023/05/15 08:19:45;;;;;;;18.30;11.10;;;14.30;99.90;;;;;;5032244;28;20034;-76
2023/05/15 08:22:11;;;;;;;23.60;12.55;;;14.30;99.90;;;;;;5032107;28;20025;-75
2023/05/15 08:24:38;;;;;;;24.85;12.13;;;14.20;99.90;;;;;;5016802;28;20032;-76
2023/05/15 08:27:05;;;;;;;22.20;12.65;;;14.00;99.90;;;;;;5016755;28;20037;-75
2023/05/15 08:29:31;;;;;;;26.92;13.48;;;13.90;99.90;;;;;;5016992;28;20035;-76
2023/05/15 08:31:57;;;;;;;34.97;13.93;;;13.80;99.90;;;;;;5032728;28;20018;-78
2023/05/15 08:34:23;;;;;;;25.10;13.35;;;13.80;99.90;;;;;;5016427;28;20036;-77
2023/05/15 08:36:48;;;;;;;21.73;13.02;;;13.80;99.90;;;;;;5031306;28;20041;-77
2023/05/15 08:39:14;;;;;;;25.65;13.98;;;13.90;99.90;;;;;;5016502;28;20038;-76
2023/05/15 08:41:57;;;;;;;23.95;12.60;;;13.80;99.90;;;;;;5016226;28;20053;-76
2023/05/15 08:44:23;;;;;;;20.58;12.77;;;13.60;99.90;;;;;;5016598;28;20025;-75
2023/05/15 08:46:51;;;;;;;25.33;11.55;;;13.60;99.90;;;;;;5014773;28;20406;-76
2023/05/15 08:49:19;;;;;;;30.55;13.57;;;13.70;99.90;;;;;;5016246;28;20014;-76
2023/05/15 08:51:46;;;;;;;25.23;13.00;;;13.80;99.90;;;;;;5016162;28;20080;-75
2023/05/15 08:54:13;;;;;;;30.88;13.98;;;13.60;99.90;;;;;;5015930;28;20029;-76
2023/05/15 08:56:40;;;;;;;23.63;12.30;;;13.60;99.90;;;;;;5031380;28;20080;-75
2023/05/15 08:59:06;;;;;;;26.40;13.07;;;13.60;99.90;;;;;;5031014;28;20026;-76
2023/05/15 09:01:32;;;;;;;24.50;13.00;;;13.50;99.90;;;;;;5015661;28;20021;-75
2023/05/15 09:03:58;;;;;;;22.25;13.50;;;13.50;99.90;;;;;;5015769;28;20382;-75
2023/05/15 09:06:24;;;;;;;22.58;13.25;;;13.50;99.90;;;;;;5015586;28;20022;-77
2023/05/15 09:08:53;;;;;;;21.30;12.05;;;13.60;99.90;;;;;;5015783;28;20018;-76
2023/05/15 09:11:20;;;;;;;27.00;14.30;;;13.70;99.90;;;;;;5015397;28;20042;-77
2023/05/15 09:13:46;;;;;;;23.35;13.82;;;13.70;99.90;;;;;;5015840;28;20042;-77
2023/05/15 09:16:11;;;;;;;34.47;14.55;;;13.70;99.90;;;;;;5015230;28;20482;-76
2023/05/15 09:18:38;;;;;;;33.97;14.90;;;13.70;99.90;;;;;;5030738;28;20030;-76
2023/05/15 09:21:22;;;;;;;31.45;13.40;;;13.60;99.90;;;;;;5015300;28;20081;-77
2023/05/15 09:23:48;;;;;;;27.98;14.82;;;13.60;99.90;;;;;;5015379;28;20037;-77
2023/05/15 09:26:14;;;;;;;33.80;14.63;;;13.40;99.90;;;;;;5015118;28;20478;-75
2023/05/15 09:28:39;;;;;;;37.70;14.80;;;13.30;99.90;;;;;;5015421;28;20018;-76
2023/05/15 09:31:06;;;;;;;24.98;13.57;;;13.40;99.90;;;;;;5015228;28;20363;-76
2023/05/15 09:33:41;;;;;;;27.55;14.70;;;13.50;99.90;;;;;;5030290;28;20386;-75
2023/05/15 09:36:07;;;;;;;29.77;15.23;;;13.40;99.90;;;;;;5015038;28;20022;-75
2023/05/15 09:38:38;;;;;;;30.15;14.20;;;13.40;99.90;;;;;;5015023;28;20033;-77
2023/05/15 09:41:05;;;;;;;27.63;13.45;;;13.40;99.90;;;;;;5029867;28;20022;-75
2023/05/15 09:43:37;;;;;;;31.60;14.97;;;13.50;99.90;;;;;;5014895;28;20084;-76
2023/05/15 09:46:03;;;;;;;27.48;14.02;;;13.40;99.90;;;;;;5029875;28;20524;-76
2023/05/15 09:48:30;;;;;;;30.90;15.30;;;13.50;99.90;;;;;;5014688;28;20504;-76
2023/05/15 09:50:56;;;;;;;28.52;15.25;;;13.50;99.90;;;;;;5014493;28;20042;-75
2023/05/15 09:53:23;;;;;;;31.38;14.43;;;13.50;99.90;;;;;;5029855;28;20124;-75
2023/05/15 09:55:51;;;;;;;29.60;14.52;;;13.50;99.90;;;;;;5014483;28;20032;-76
2023/05/15 09:58:18;;;;;;;30.88;13.68;;;13.60;99.90;;;;;;5014453;28;20056;-76
2023/05/15 10:00:45;;;;;;;34.25;15.98;;;13.60;99.90;;;;;;5014585;28;20389;-76
2023/05/15 10:03:11;;;;;;;32.07;16.57;;;13.50;99.90;;;;;;5014419;28;20057;-76
2023/05/15 10:05:38;;;;;;;37.63;16.45;;;13.40;99.90;;;;;;5014387;28;20109;-77
2023/05/15 10:08:04;;;;;;;39.85;16.15;;;13.50;99.90;;;;;;5014577;28;20018;-75
2023/05/15 10:10:31;;;;;;;47.00;18.85;;;13.60;99.90;;;;;;5013943;28;20030;-76
2023/05/15 10:13:02;;;;;;;36.08;17.23;;;13.50;99.90;;;;;;5014146;28;20042;-76
2023/05/15 10:15:28;;;;;;;44.67;17.98;;;13.40;99.90;;;;;;5014136;28;20133;-76
2023/05/15 10:17:54;;;;;;;39.63;19.75;;;13.40;99.90;;;;;;5013812;28;20040;-76
2023/05/15 10:20:22;;;;;;;35.13;17.60;;;13.40;99.90;;;;;;5029488;28;20108;-75
2023/05/15 10:22:50;;;;;;;44.05;18.75;;;13.40;99.90;;;;;;5014135;28;20030;-76
2023/05/15 10:25:26;;;;;;;;;;;13.40;99.90;;;;;;5014444;28;20030;-75
2023/05/15 10:27:54;;;;;;;42.08;19.13;;;13.40;99.90;;;;;;5029249;28;19912;-77
2023/05/15 10:30:20;;;;;;;;;;;13.40;99.90;;;;;;5029373;28;20018;-76
2023/05/15 10:32:47;;;;;;;35.92;17.85;;;13.40;99.90;;;;;;5013909;28;19905;-76
2023/05/15 10:35:14;;;;;;;41.13;18.67;;;13.30;99.90;;;;;;5014135;28;20028;-78
2023/05/15 10:37:40;;;;;;;45.90;20.67;;;13.30;99.90;;;;;;5028289;28;20121;-75
2023/05/15 10:40:09;;;;;;;41.08;18.80;;;13.30;99.90;;;;;;5029217;28;20018;-76
2023/05/15 10:42:36;;;;;;;49.15;20.88;;;13.30;99.90;;;;;;5014155;28;20026;-76
2023/05/15 10:45:06;;;;;;;40.08;19.42;;;13.40;99.90;;;;;;5013549;28;20080;-77
2023/05/15 10:47:33;;;;;;;36.53;18.90;;;13.30;99.90;;;;;;5013884;28;20364;-75
2023/05/15 10:50:00;;;;;;;42.38;20.05;;;13.30;99.90;;;;;;5028285;28;20375;-76
2023/05/15 10:52:26;;;;;;;36.07;17.83;;;13.40;99.90;;;;;;5013643;28;20022;-77
2023/05/15 10:54:52;;;;;;;36.70;18.70;;;13.40;99.90;;;;;;5013538;28;20025;-75
2023/05/15 10:57:22;;;;;;;42.67;19.48;;;13.50;99.90;;;;;;5013316;28;20057;-75
2023/05/15 10:59:49;;;;;;;37.42;18.98;;;13.60;99.90;;;;;;5013356;28;20061;-76
2023/05/15 11:02:25;;;;;;;38.45;18.20;;;13.70;99.90;;;;;;5025454;28;20058;-75
2023/05/15 11:04:56;;;;;;;36.45;18.30;;;13.80;99.90;;;;;;5013449;28;20057;-76
2023/05/15 11:07:23;;;;;;;40.92;19.77;;;13.80;99.90;;;;;;5013832;28;20083;-76
2023/05/15 11:09:49;;;;;;;36.67;18.83;;;13.80;99.90;;;;;;5013605;28;20014;-75
2023/05/15 11:12:15;;;;;;;36.47;18.42;;;13.90;99.90;;;;;;5013374;28;20018;-75
2023/05/15 11:15:11;;;;;;;32.88;17.55;;;13.90;99.90;;;;;;5013169;28;20073;-76
2023/05/15 11:17:36;;;;;;;31.88;17.55;;;14.00;99.90;;;;;;5008563;28;20397;-75
2023/05/15 11:20:04;;;;;;;32.35;16.90;;;14.00;99.90;;;;;;5013166;28;20026;-76
2023/05/15 11:22:38;;;;;;;33.58;16.08;;;14.10;99.90;;;;;;5013398;28;20405;-75
2023/05/15 11:25:10;;;;;;;33.17;16.95;;;14.30;99.90;;;;;;5013330;28;20029;-75
2023/05/15 11:27:36;;;;;;;36.40;17.00;;;14.60;99.90;;;;;;5013128;28;20026;-76
2023/05/15 11:30:04;;;;;;;30.23;15.57;;;14.80;99.90;;;;;;5028344;28;20029;-77
2023/05/15 11:32:38;;;;;;;32.65;14.38;;;14.90;99.90;;;;;;5028465;28;20030;-76
2023/05/15 11:35:09;;;;;;;26.60;15.55;;;14.80;99.90;;;;;;5013164;28;20053;-77
2023/05/15 11:37:47;;;;;;;29.92;13.80;;;15.00;99.90;;;;;;5028591;28;20029;-76
2023/05/15 11:40:21;;;;;;;28.00;12.75;;;15.20;99.90;;;;;;5013429;28;20525;-77
2023/05/15 11:43:03;;;;;;;21.15;12.45;;;15.40;99.90;;;;;;5013394;28;20045;-76
2023/05/15 11:45:31;;;;;;;20.98;11.75;;;15.40;99.90;;;;;;5013268;28;20486;-76
2023/05/15 11:47:59;;;;;;;20.58;12.32;;;15.40;99.90;;;;;;5029722;28;20041;-75
2023/05/15 11:50:26;;;;;;;17.98;11.40;;;15.20;99.90;;;;;;5016950;28;20084;-75
2023/05/15 11:52:52;;;;;;;19.85;10.82;;;15.20;99.90;;;;;;5017082;28;20029;-75
2023/05/15 11:55:18;;;;;;;17.92;9.52;;;15.30;99.90;;;;;;5017064;28;20363;-76
2023/05/15 11:57:47;;;;;;;19.30;9.55;;;15.20;99.90;;;;;;5015397;28;20033;-75
2023/05/15 12:00:14;;;;;;;16.65;9.98;;;15.30;99.90;;;;;;5016803;28;20514;-77
2023/05/15 12:02:40;;;;;;;15.88;10.55;;;15.30;99.90;;;;;;5016753;28;20025;-76
2023/05/15 12:05:07;;;;;;;14.18;8.65;;;15.30;99.90;;;;;;5016629;28;20030;-76
2023/05/15 12:07:41;;;;;;;12.07;7.40;;;15.50;99.90;;;;;;5016627;28;20024;-76
2023/05/15 12:10:10;;;;;;;18.75;9.13;;;15.60;99.90;;;;;;5031946;28;20514;-77
2023/05/15 12:12:38;;;;;;;15.15;9.68;;;15.70;99.90;;;;;;5016078;28;20029;-76
2023/05/15 12:15:06;;;;;;;16.25;9.38;;;15.80;99.90;;;;;;5031817;28;20402;-76
2023/05/15 12:17:32;;;;;;;;;;;15.90;99.90;;;;;;5015893;28;20030;-76
2023/05/15 12:19:58;;;;;;;10.65;6.43;;;15.60;99.90;;;;;;5016538;28;19913;-75
2023/05/15 12:22:24;;;;;;;12.13;5.73;;;15.50;99.90;;;;;;5016672;28;20030;-76
2023/05/15 12:24:50;;;;;;;12.27;7.32;;;15.40;99.90;;;;;;5016322;28;20030;-75
2023/05/15 12:27:17;;;;;;;13.05;5.95;;;15.40;99.90;;;;;;5031847;28;20022;-75
2023/05/15 12:29:43;;;;;;;11.60;6.68;;;15.40;99.90;;;;;;5016257;28;20473;-75